createdAt,value
2023-08-07T00:04:27.181Z,3.8
2023-08-07T00:09:33.037Z,3.9
2023-08-07T00:14:39.107Z,4.1
2023-08-07T00:19:45.223Z,4.2
2023-08-07T00:24:51.554Z,4.2
2023-08-07T00:29:57.398Z,4.2
2023-08-07T00:35:03.492Z,4.1
2023-08-07T00:40:09.579Z,3.8
2023-08-07T00:45:15.706Z,4
2023-08-07T00:50:24.280Z,3.9
2023-08-07T00:55:27.843Z,3.9
2023-08-07T01:00:34.033Z,3.8
2023-08-07T01:05:40.175Z,3.6
2023-08-07T01:10:46.197Z,3.9
2023-08-07T01:15:52.317Z,3.7
2023-08-07T01:20:58.418Z,3.6
2023-08-07T01:26:04.653Z,4
2023-08-07T01:31:10.585Z,3.8
2023-08-07T01:36:18.786Z,3.7
2023-08-07T01:41:22.772Z,3.8
2023-08-07T01:46:28.917Z,3.8
2023-08-07T01:51:34.946Z,3.9
2023-08-07T01:56:41.161Z,3.9
2023-08-07T02:01:47.213Z,4
2023-08-07T02:06:53.325Z,4.3
2023-08-07T02:11:59.302Z,4.4
2023-08-07T02:17:05.404Z,4.4
2023-08-07T02:22:11.531Z,4.5
2023-08-07T02:27:17.622Z,4.4
2023-08-07T02:32:23.727Z,4.5
2023-08-07T02:37:29.802Z,4.5
2023-08-07T02:42:35.929Z,4.1
2023-08-07T02:47:42.010Z,4.3
2023-08-07T02:52:48.064Z,4.2
2023-08-07T02:57:54.170Z,4.3
2023-08-07T03:03:00.422Z,4.4
2023-08-07T03:08:06.391Z,4.4
2023-08-07T03:13:12.420Z,3.7
2023-08-07T03:18:18.598Z,3.8
2023-08-07T03:23:24.700Z,3.7
2023-08-07T03:28:30.714Z,3.6
2023-08-07T03:33:36.943Z,3.6
2023-08-07T03:38:42.961Z,3.3
2023-08-07T03:43:49.019Z,3.3
2023-08-07T03:48:55.218Z,3.4
2023-08-07T03:54:01.210Z,3.5
2023-08-07T03:59:07.373Z,3.7
2023-08-07T04:04:13.369Z,3.9
2023-08-07T04:09:19.535Z,4
2023-08-07T04:14:25.571Z,3.9
2023-08-07T04:19:37.341Z,3.8
2023-08-07T04:24:43.378Z,4
2023-08-07T04:29:49.451Z,4.1
2023-08-07T04:34:55.557Z,4.1
2023-08-07T04:40:01.714Z,4.2
2023-08-07T04:45:07.986Z,3.9
2023-08-07T04:50:13.831Z,4.1
2023-08-07T04:55:19.919Z,4.2
2023-08-07T05:00:26.017Z,4.4
2023-08-07T05:05:32.114Z,4.3
2023-08-07T05:10:38.208Z,4.2
2023-08-07T05:15:44.334Z,5
2023-08-07T05:20:50.395Z,4.7
2023-08-07T05:25:56.599Z,4.4
2023-08-07T05:31:02.617Z,4.2
2023-08-07T05:36:08.690Z,4.1
2023-08-07T05:41:14.770Z,4.1
2023-08-07T05:46:21.031Z,4.6
2023-08-07T05:51:26.948Z,5.2
2023-08-07T05:56:33.062Z,8.6
2023-08-07T06:01:39.189Z,12.5
2023-08-07T06:06:45.243Z,10.2
2023-08-07T06:11:51.332Z,13.3
2023-08-07T06:16:57.422Z,13.7
2023-08-07T06:22:03.527Z,9
2023-08-07T06:27:09.633Z,12.3
2023-08-07T06:32:15.764Z,15.4
2023-08-07T06:37:21.861Z,16.9
2023-08-07T06:42:27.903Z,17.3
2023-08-07T06:47:34.196Z,18.1
2023-08-07T06:52:40.249Z,18.2
2023-08-07T06:57:46.309Z,19.1
2023-08-07T07:02:52.328Z,16.4
2023-08-07T07:07:58.366Z,17.3
2023-08-07T07:13:04.473Z,17.3
2023-08-07T07:18:10.596Z,18.1
2023-08-07T07:23:16.720Z,17.5
2023-08-07T07:28:22.772Z,17.3
2023-08-07T07:33:28.868Z,17.5
2023-08-07T07:38:34.968Z,17
2023-08-07T07:43:41.096Z,16.8
2023-08-07T07:48:47.442Z,17.6
2023-08-07T07:54:12.279Z,16.8
2023-08-07T07:58:59.667Z,16.9
2023-08-07T08:04:05.501Z,12
2023-08-07T08:09:11.559Z,10.4
2023-08-07T08:14:17.645Z,10.4
2023-08-07T08:19:23.746Z,14.6
2023-08-07T08:24:29.859Z,15.4
2023-08-07T08:29:35.918Z,15.7
2023-08-07T08:34:42.015Z,14.7
2023-08-07T08:39:48.118Z,12.6
2023-08-07T08:44:54.222Z,14.1
2023-08-07T08:50:00.461Z,14.4
2023-08-07T08:55:06.435Z,14.4
2023-08-07T09:00:12.482Z,12.3
2023-08-07T09:05:18.611Z,12.2
2023-08-07T09:10:24.718Z,11.7
2023-08-07T09:15:30.786Z,12.8
2023-08-07T09:20:36.904Z,11.9
2023-08-07T09:25:42.978Z,11.6
2023-08-07T09:30:49.080Z,11.7
2023-08-07T09:35:55.158Z,12.2
2023-08-07T09:41:01.265Z,11.9
2023-08-07T09:46:07.374Z,12.5
2023-08-07T09:51:13.450Z,12.3
2023-08-07T09:56:19.706Z,11
2023-08-07T10:01:25.694Z,11
2023-08-07T10:06:31.744Z,12.6
2023-08-07T10:11:37.822Z,13
2023-08-07T10:16:43.920Z,12.4
2023-08-07T10:21:50.045Z,10.8
2023-08-07T10:26:56.613Z,10.8
2023-08-07T10:32:02.263Z,10.8
2023-08-07T10:37:08.466Z,11.9
2023-08-07T10:42:14.409Z,11.5
2023-08-07T10:47:20.506Z,11.9
2023-08-07T10:52:26.600Z,12.4
2023-08-07T10:57:32.744Z,11.3
2023-08-07T11:02:38.789Z,10.7
2023-08-07T11:07:45.307Z,10.8
2023-08-07T11:12:50.954Z,12
2023-08-07T11:17:57.074Z,12.6
2023-08-07T11:23:03.176Z,11.8
2023-08-07T11:28:09.413Z,11.6
2023-08-07T11:33:15.347Z,12.4
2023-08-07T11:38:21.440Z,12.3
2023-08-07T11:43:27.525Z,12.3
2023-08-07T11:48:33.648Z,12.4
2023-08-07T11:53:39.740Z,12.9
2023-08-07T11:58:45.805Z,12.2
2023-08-07T12:03:51.928Z,12.7
2023-08-07T12:08:58.181Z,13.2
2023-08-07T12:14:04.105Z,12
2023-08-07T12:19:10.189Z,11.4
2023-08-07T12:24:16.317Z,11.6
2023-08-07T12:29:22.384Z,11.9
2023-08-07T12:44:40.663Z,12.8
2023-08-07T12:49:46.747Z,10.9
2023-08-07T12:54:52.997Z,12.3
2023-08-07T12:59:58.953Z,12.1
2023-08-07T13:05:05.050Z,12.5
2023-08-07T13:10:11.128Z,12
2023-08-07T13:15:17.238Z,13
2023-08-07T13:20:23.579Z,12.8
2023-08-07T13:25:29.440Z,12.3
2023-08-07T13:30:37.498Z,12.5
2023-08-07T13:35:41.783Z,12.2
2023-08-07T13:40:47.726Z,11.9
2023-08-07T13:45:53.808Z,12.3
2023-08-07T13:50:59.890Z,12
2023-08-07T13:56:06.005Z,12.5
2023-08-07T14:01:12.166Z,11.9
2023-08-07T14:06:18.175Z,11.6
2023-08-07T14:11:24.276Z,11.8
2023-08-07T14:16:30.378Z,12.1
2023-08-07T14:21:36.604Z,12.6
2023-08-07T14:26:42.563Z,12.1
2023-08-07T14:31:48.660Z,11.6
2023-08-07T14:36:54.759Z,11.3
2023-08-07T14:42:00.945Z,11.7
2023-08-07T14:47:06.933Z,11.6
2023-08-07T14:52:13.057Z,11.6
2023-08-07T14:57:19.116Z,11.8
2023-08-07T15:02:25.217Z,11.5
2023-08-07T15:07:31.328Z,11.2
2023-08-07T15:12:37.401Z,11.2
2023-08-07T15:17:43.559Z,11.4
2023-08-07T15:22:49.778Z,11.1
2023-08-07T15:27:55.719Z,11
2023-08-07T15:33:01.805Z,11
2023-08-07T15:38:07.930Z,10.7
2023-08-07T15:43:13.994Z,10.5
2023-08-07T15:48:20.190Z,10.2
2023-08-07T15:53:26.232Z,10.2
2023-08-07T15:58:32.245Z,9.9
2023-08-07T16:03:38.398Z,9.9
2023-08-07T16:08:44.447Z,10
2023-08-07T16:13:50.558Z,9.9
2023-08-07T16:18:56.807Z,9.7
2023-08-07T16:24:02.751Z,9.6
2023-08-07T16:29:08.823Z,9.7
2023-08-07T16:34:14.935Z,9.7
2023-08-07T16:39:21.007Z,9.7
2023-08-07T16:49:33.206Z,9.3
2023-08-07T16:54:39.288Z,9
2023-08-07T16:59:45.408Z,8.7
2023-08-07T17:04:51.496Z,8.8
2023-08-07T17:09:57.583Z,8.7
2023-08-07T17:15:03.937Z,8.6
2023-08-07T17:20:09.792Z,8.4
2023-08-07T17:25:16.895Z,8.3
2023-08-07T17:30:21.969Z,8.3
2023-08-07T17:35:28.063Z,8.3
2023-08-07T17:40:34.176Z,8.2
2023-08-07T17:45:40.249Z,7.8
2023-08-07T17:50:47.087Z,8
2023-08-07T17:55:52.441Z,7.8
2023-08-07T18:00:58.636Z,7.7
2023-08-07T18:06:04.649Z,7.6
2023-08-07T18:11:10.732Z,7.5
2023-08-07T18:16:16.867Z,7.3
2023-08-07T18:21:23.065Z,7.2
2023-08-07T18:26:29.034Z,7
2023-08-07T18:31:35.104Z,6.9
2023-08-07T18:36:41.196Z,6.9
2023-08-07T18:41:47.289Z,6.9
2023-08-07T18:46:53.423Z,6.9
2023-08-07T18:51:59.474Z,6.9
2023-08-07T18:57:06.362Z,6.9
2023-08-07T19:02:11.667Z,6.8
2023-08-07T19:07:17.761Z,6.8
2023-08-07T19:12:23.854Z,6.7
2023-08-07T19:17:29.948Z,6.7
2023-08-07T19:22:36.042Z,6.6
2023-08-07T19:27:42.281Z,6.5
2023-08-07T19:32:48.289Z,6.6
2023-08-07T19:37:54.329Z,6.6
2023-08-07T19:43:00.414Z,6.3
2023-08-07T19:48:06.555Z,6.3
2023-08-07T19:53:12.617Z,6.3
2023-08-07T19:58:18.708Z,6.1
2023-08-07T20:03:25.074Z,6.2
2023-08-07T20:08:30.897Z,6.3
2023-08-07T20:13:36.996Z,6
2023-08-07T20:18:43.223Z,6.1
2023-08-07T20:23:49.170Z,5.9
2023-08-07T20:28:55.268Z,5.8
2023-08-07T20:34:01.354Z,5.9
2023-08-07T20:39:07.604Z,5.9
2023-08-07T20:44:13.560Z,5.8
2023-08-07T20:49:19.671Z,5.9
2023-08-07T20:54:25.737Z,6.1
2023-08-07T20:59:32.110Z,5.9
2023-08-07T21:04:37.934Z,5.8
2023-08-07T21:09:44.037Z,5.7
2023-08-07T21:14:50.150Z,5.8
2023-08-07T21:20:02.030Z,5.7
2023-08-07T21:25:07.973Z,5.8
2023-08-07T21:30:14.060Z,6
2023-08-07T21:35:20.128Z,6
2023-08-07T21:40:26.246Z,6
2023-08-07T21:45:32.300Z,6.2
2023-08-07T21:50:38.418Z,6.2
2023-08-07T21:55:44.520Z,6
2023-08-07T22:00:50.602Z,6
2023-08-07T22:05:56.709Z,6.1
2023-08-07T22:11:02.766Z,6.1
2023-08-07T22:16:09.103Z,6.2
2023-08-07T22:21:14.974Z,6.3
2023-08-07T22:26:21.229Z,6.3
2023-08-07T22:31:27.173Z,6.3
2023-08-07T22:36:33.280Z,6.1
2023-08-07T22:41:39.378Z,6
2023-08-07T22:46:45.439Z,6
2023-08-07T22:51:51.560Z,6.2
2023-08-07T22:56:57.672Z,6
2023-08-07T23:02:03.727Z,6
2023-08-07T23:07:09.821Z,5.8
2023-08-07T23:12:17.518Z,5.7
2023-08-07T23:17:22.035Z,5.7
2023-08-07T23:22:28.097Z,5.8
2023-08-07T23:27:34.194Z,5.7
2023-08-07T23:32:40.343Z,5.6
2023-08-07T23:37:46.402Z,5.7
2023-08-07T23:42:52.488Z,5.7
2023-08-07T23:47:58.612Z,5.5
2023-08-07T23:53:04.692Z,5.4
2023-08-07T23:58:10.770Z,5.4
